Aeroporto :
LOGIN :

Iscrizione | Disclaimer

   EN    FR    IT 

 










Sommario :    VFR   VFR Marginale   IFR   IFR Intensivo   IFR Molto Intensivo
Visibilità : 
Base nubi : 
>= 8 km
>= 3000ft
5 / 8 km
1000 / 3000 ft
1500m / 5 km
500 / 1000 ft
800 / 1500m
200 / 500 ft
< 800m
< 200 ft
Simboli :   Temporali  Nebbia  Neve Forte  Precipitazioni Forti  Vento > 20 kt
SIGMETs :   Varie  Temporali  Ghiacco  Turbolenza  Onda orograficha  Ceneri Vulcaniche






- Altitudine del aeroporto : 319 ft


EIME - Casement Air Base

ULTIMO METAR :
  • 222000Z 23015KT 9999 -RA FEW015 SCT028 BKN050 06/04 Q1014

METARs OBSOLETI :
  • 221900Z 24014KT 9999 FEW015 SCT028 BKN045 05/04 Q1015
  • 221800Z 24015KT 9999 FEW015CB SCT032 BKN061 06/04 Q1014
  • 221700Z 25020KT 9999 -SHRA FEW015CB BKN022 07/03 Q1014

TAF TAF EIME
Valido dal 22 a 18 ore il 23 a 03 ore UTC


221700Z 2218/2303 25020G32KT 9999 FEW012 BKN025
BECMG 2218/2220 24016KT
TEMPO 2220/2223 24017G28KT -RA BKN012
BECMG 2222/2224 -RA BKN012
TEMPO 2300/2303 5000 RA
BECMG 2301/2303 23006KT



MetMap, La meteo Aeronautica in un colpo d'occhio ! - Copyright ORBIFLY Dicembre 2007 - Disclaimer

ORBIFLY MET'MAP TEAM :

Programmazione e sviluppo : Alexandra Zaïnal
Concezione : Baudouin d'Aumeries
Aiuto per la programmazione : Marc-Olivier Méhu
Supporto tecnico e logistico : Manuel Goepfert
Aiuto per la traduzione : Arnaldo La Scala

Contatto : metmap@orbifly.com




FONTI E CREDITI :

   NOAA